Aviation Digital Data Service (ADDS)

Output produced by METARs form (1953 UTC 26 July 2016)
found at http://aviationweather.gov/adds/metars/
 
KPHL 261754Z 2618/2724 30009G17KT P6SM FEW050 BKN250 
     FM270000 33007KT P6SM BKN250 
     FM270500 01005KT P6SM SCT250 
     FM271200 02005KT P6SM BKN200 
     FM271600 33008KT P6SM FEW050 BKN200 
     FM271800 28008KT P6SM SCT060 BKN150